createdAt,value
2023-08-12T00:02:16.701Z,41.40
2023-08-12T00:04:44.605Z,42.80
2023-08-12T00:07:13.682Z,38.90
2023-08-12T00:09:41.908Z,43.70
2023-08-12T00:12:09.873Z,44.80
2023-08-12T00:14:37.887Z,45.80
2023-08-12T00:17:06.017Z,48.40
2023-08-12T00:19:35.341Z,49.70
2023-08-12T00:22:03.223Z,50.60
2023-08-12T00:24:31.443Z,51.80
2023-08-12T00:27:00.052Z,49.90
2023-08-12T00:29:27.962Z,43.30
2023-08-12T00:31:57.027Z,50.00
2023-08-12T00:34:24.967Z,51.40
2023-08-12T00:36:54.277Z,47.00
2023-08-12T00:39:22.294Z,47.80
2023-08-12T00:41:50.465Z,44.40
2023-08-12T00:44:18.543Z,48.90
2023-08-12T00:46:46.544Z,51.40
2023-08-12T00:49:14.854Z,63.60
2023-08-12T00:51:43.628Z,54.80
2023-08-12T00:54:15.459Z,53.70
2023-08-12T00:56:43.509Z,58.10
2023-08-12T00:59:12.007Z,56.00
2023-08-12T01:01:41.870Z,58.30
2023-08-12T01:04:09.842Z,66.40
2023-08-12T01:06:39.157Z,71.60
2023-08-12T01:09:07.831Z,68.80
2023-08-12T01:11:40.410Z,62.90
2023-08-12T01:14:11.208Z,64.50
2023-08-12T01:16:41.850Z,65.70
2023-08-12T01:19:12.991Z,71.70
2023-08-12T01:21:43.307Z,71.40
2023-08-12T01:24:13.079Z,66.80
2023-08-12T01:26:41.003Z,68.00
2023-08-12T01:29:08.956Z,55.70
2023-08-12T01:31:40.513Z,72.70
2023-08-12T01:34:10.166Z,70.00
2023-08-12T01:36:39.133Z,68.40
2023-08-12T01:39:08.339Z,70.30
2023-08-12T01:41:38.010Z,74.00
2023-08-12T01:44:06.277Z,67.90
2023-08-12T01:46:34.232Z,71.00
2023-08-12T01:49:02.170Z,74.70
2023-08-12T01:51:31.587Z,84.10
2023-08-12T01:53:59.545Z,87.40
2023-08-12T01:56:27.470Z,79.50
2023-08-12T01:58:56.685Z,73.10
2023-08-12T02:01:24.714Z,75.90
2023-08-12T02:03:52.829Z,59.90
2023-08-12T02:06:20.955Z,51.10
2023-08-12T02:08:48.934Z,60.60
2023-08-12T02:11:16.841Z,65.70
2023-08-12T02:13:44.693Z,69.10
2023-08-12T02:16:14.117Z,65.30
2023-08-12T02:18:42.092Z,68.50
2023-08-12T02:21:10.024Z,66.00
2023-08-12T02:23:37.984Z,70.20
2023-08-12T02:26:05.880Z,72.90
2023-08-12T02:28:33.750Z,77.50
2023-08-12T02:31:01.748Z,76.20
2023-08-12T02:33:31.055Z,73.00
2023-08-12T02:35:58.968Z,74.00
2023-08-12T02:38:26.931Z,73.70
2023-08-12T02:40:54.887Z,69.20
2023-08-12T02:43:23.006Z,72.40
2023-08-12T02:45:50.903Z,72.30
2023-08-12T02:48:18.909Z,83.60
2023-08-12T02:50:48.198Z,78.60
2023-08-12T02:53:17.413Z,79.10
2023-08-12T02:55:46.669Z,79.90
2023-08-12T02:58:14.633Z,81.30
2023-08-12T03:00:43.265Z,85.60
2023-08-12T03:03:11.417Z,82.10
2023-08-12T03:05:39.489Z,78.10
2023-08-12T03:08:08.913Z,73.80
2023-08-12T03:10:36.826Z,78.50
2023-08-12T03:13:04.838Z,79.30
2023-08-12T03:15:32.848Z,83.00
2023-08-12T03:18:00.834Z,79.10
2023-08-12T03:20:27.822Z,81.20
2023-08-12T03:22:55.776Z,82.50
2023-08-12T03:25:25.050Z,84.60
2023-08-12T03:27:52.955Z,83.30
2023-08-12T03:30:20.893Z,88.20
2023-08-12T03:32:48.927Z,84.60
2023-08-12T03:35:18.499Z,89.90
2023-08-12T03:37:48.153Z,90.70
2023-08-12T03:40:16.079Z,92.90
2023-08-12T03:42:45.405Z,91.20
2023-08-12T03:45:13.392Z,90.40
2023-08-12T03:47:41.497Z,89.30
2023-08-12T03:50:09.790Z,90.80
2023-08-12T03:52:37.832Z,90.80
2023-08-12T03:55:06.181Z,86.30
2023-08-12T03:57:34.791Z,86.70
2023-08-12T04:00:05.139Z,88.80
2023-08-12T04:02:33.391Z,78.70
2023-08-12T04:05:01.527Z,81.20
2023-08-12T04:07:29.834Z,84.30
2023-08-12T04:09:57.864Z,83.10
2023-08-12T04:12:25.879Z,82.40
2023-08-12T04:14:53.941Z,77.00
2023-08-12T04:17:23.366Z,85.50
2023-08-12T04:19:51.450Z,85.10
2023-08-12T04:22:19.471Z,83.10
2023-08-12T04:24:47.461Z,73.70
2023-08-12T04:27:17.367Z,75.10
2023-08-12T04:29:45.366Z,71.20
2023-08-12T04:32:13.310Z,77.10
2023-08-12T04:34:42.909Z,78.30
2023-08-12T04:37:11.106Z,84.10
2023-08-12T04:39:39.401Z,82.50
2023-08-12T04:42:07.728Z,83.80
2023-08-12T04:44:35.814Z,86.30
2023-08-12T04:47:04.109Z,89.50
2023-08-12T04:49:32.374Z,84.60
2023-08-12T04:52:01.848Z,84.60
2023-08-12T04:54:29.816Z,81.70
2023-08-12T04:56:58.337Z,75.50
2023-08-12T04:59:27.704Z,74.40
2023-08-12T05:02:04.072Z,74.70
2023-08-12T05:04:33.033Z,70.10
2023-08-12T05:07:02.353Z,66.70
2023-08-12T05:09:30.467Z,66.70
2023-08-12T05:11:58.408Z,63.30
2023-08-12T05:14:26.316Z,62.40
2023-08-12T05:16:54.220Z,58.50
2023-08-12T05:19:22.723Z,55.20
2023-08-12T05:21:50.759Z,47.40
2023-08-12T05:24:20.047Z,51.50
2023-08-12T05:26:49.191Z,42.80
2023-08-12T05:29:17.086Z,44.70
2023-08-12T05:31:45.122Z,34.30
2023-08-12T05:34:13.341Z,35.80
2023-08-12T05:36:41.331Z,28.80
2023-08-12T05:39:09.239Z,29.60
2023-08-12T05:41:38.540Z,27.90
2023-08-12T05:44:06.978Z,27.00
2023-08-12T05:46:34.922Z,22.70
2023-08-12T05:49:03.019Z,17.90
2023-08-12T05:51:30.980Z,18.20
2023-08-12T05:53:58.931Z,18.60
2023-08-12T05:56:26.823Z,15.40
2023-08-12T05:58:56.189Z,13.30
2023-08-12T06:01:24.309Z,13.10
2023-08-12T06:03:55.238Z,10.30
2023-08-12T06:06:23.954Z,5.20
2023-08-12T06:08:51.892Z,3.40
2023-08-12T06:11:19.874Z,3.60
2023-08-12T06:13:47.867Z,1.00
2023-08-12T06:16:17.203Z,1.00
2023-08-12T06:18:45.215Z,1.00
2023-08-12T06:21:13.220Z,1.00
2023-08-12T06:23:41.122Z,1.00
2023-08-12T06:26:09.037Z,1.00
2023-08-12T06:28:36.919Z,1.00
2023-08-12T06:31:04.855Z,1.00
2023-08-12T06:33:34.191Z,1.00
2023-08-12T06:36:02.100Z,1.00
2023-08-12T06:38:30.062Z,1.00
2023-08-12T06:40:57.976Z,1.00
2023-08-12T06:43:27.822Z,1.00
2023-08-12T06:45:58.569Z,1.00
2023-08-12T06:48:26.621Z,1.00
2023-08-12T06:50:59.624Z,1.00
2023-08-12T06:53:28.079Z,1.00
2023-08-12T06:55:56.090Z,1.00
2023-08-12T06:58:24.055Z,1.00
2023-08-12T07:00:53.557Z,1.00
2023-08-12T07:03:21.682Z,1.00
2023-08-12T07:05:49.771Z,1.00
2023-08-12T07:08:19.027Z,1.00
2023-08-12T07:10:46.945Z,1.00
2023-08-12T07:13:14.888Z,1.00
2023-08-12T07:15:42.914Z,1.00
2023-08-12T07:18:12.426Z,1.00
2023-08-12T07:20:40.435Z,1.00
2023-08-12T07:23:08.347Z,1.00
2023-08-12T07:25:37.652Z,1.00
2023-08-12T07:28:05.916Z,1.00
2023-08-12T07:30:35.811Z,1.00
2023-08-12T07:33:03.826Z,1.00
2023-08-12T07:35:31.857Z,1.00
2023-08-12T07:37:59.757Z,1.00
2023-08-12T07:40:27.671Z,1.00
2023-08-12T07:42:56.973Z,1.00
2023-08-12T07:45:24.926Z,1.00
2023-08-12T07:47:53.229Z,1.00
2023-08-12T07:50:21.450Z,1.00
2023-08-12T07:52:49.399Z,1.00
2023-08-12T07:55:17.632Z,1.00
2023-08-12T07:57:46.525Z,1.00
2023-08-12T08:00:16.266Z,1.00
2023-08-12T08:02:44.217Z,1.00
2023-08-12T08:05:12.295Z,1.00
2023-08-12T08:07:40.227Z,1.00
2023-08-12T08:10:08.676Z,1.00
2023-08-12T08:12:36.693Z,1.00
2023-08-12T08:15:05.145Z,1.00
2023-08-12T08:17:35.773Z,1.00
2023-08-12T08:20:06.327Z,1.00
2023-08-12T08:22:34.370Z,1.00
2023-08-12T08:25:02.345Z,1.00
2023-08-12T08:27:30.296Z,1.00
2023-08-12T08:29:58.293Z,1.00
2023-08-12T08:32:26.917Z,1.00
2023-08-12T08:34:56.483Z,1.00
2023-08-12T08:37:24.610Z,1.00
2023-08-12T08:39:52.561Z,1.00
2023-08-12T08:42:23.047Z,1.00
2023-08-12T08:44:54.102Z,1.00
2023-08-12T08:47:23.942Z,1.00
2023-08-12T08:49:54.134Z,1.00
2023-08-12T08:52:24.091Z,1.00
2023-08-12T08:54:53.373Z,1.00
2023-08-12T08:57:23.405Z,1.00
2023-08-12T09:00:16.384Z,1.00
2023-08-12T09:02:45.674Z,1.00
2023-08-12T09:05:15.177Z,1.00
2023-08-12T09:07:45.208Z,1.00
2023-08-12T09:10:15.668Z,1.00
2023-08-12T09:12:44.586Z,1.00
2023-08-12T09:15:12.609Z,1.00
2023-08-12T09:17:40.777Z,1.00
2023-08-12T09:20:12.949Z,1.00
2023-08-12T09:22:42.180Z,1.00
2023-08-12T09:25:12.307Z,1.00
2023-08-12T09:27:40.404Z,1.00
2023-08-12T09:30:09.348Z,1.00
2023-08-12T09:32:39.485Z,1.00
2023-08-12T09:35:09.926Z,1.00
2023-08-12T09:37:38.917Z,1.00
2023-08-12T09:40:07.912Z,1.00
2023-08-12T09:42:37.209Z,1.00
2023-08-12T09:45:08.758Z,1.00
2023-08-12T09:47:36.860Z,1.00
2023-08-12T09:50:05.060Z,1.00
2023-08-12T09:52:33.754Z,1.00
2023-08-12T09:55:02.926Z,1.00
2023-08-12T09:57:33.148Z,1.00
2023-08-12T10:00:03.514Z,1.00
2023-08-12T10:02:31.614Z,1.00
2023-08-12T10:05:00.796Z,1.00
2023-08-12T10:07:28.847Z,1.00
2023-08-12T10:09:58.430Z,1.00
2023-08-12T10:12:26.767Z,1.00
2023-08-12T10:14:54.767Z,1.00
2023-08-12T10:17:41.218Z,1.00
2023-08-12T10:20:14.517Z,1.00
2023-08-12T10:22:42.592Z,1.00
2023-08-12T10:25:10.921Z,1.00
2023-08-12T10:27:39.056Z,1.00
2023-08-12T10:30:08.809Z,1.00
2023-08-12T10:32:38.481Z,1.00
2023-08-12T10:35:07.575Z,1.00
2023-08-12T10:37:36.240Z,1.00
2023-08-12T10:40:08.391Z,1.00
2023-08-12T10:42:43.507Z,1.00
2023-08-12T10:45:12.073Z,1.00
2023-08-12T10:47:41.857Z,1.00
2023-08-12T10:50:18.770Z,1.00
2023-08-12T10:52:46.891Z,1.00
2023-08-12T10:55:18.573Z,1.00
2023-08-12T10:57:47.024Z,1.00
2023-08-12T11:00:16.031Z,1.00
2023-08-12T11:02:48.094Z,1.00
2023-08-12T11:05:16.213Z,1.00
2023-08-12T11:07:45.134Z,1.00
2023-08-12T11:10:13.995Z,1.00
2023-08-12T11:12:42.448Z,1.00
2023-08-12T11:15:11.937Z,1.00
2023-08-12T11:17:41.005Z,1.00
2023-08-12T11:20:11.796Z,1.00
2023-08-12T11:22:40.700Z,1.00
2023-08-12T11:25:09.817Z,1.00
2023-08-12T11:27:41.784Z,1.00
2023-08-12T11:30:11.380Z,1.00
2023-08-12T11:32:40.139Z,1.00
2023-08-12T11:35:08.771Z,1.00
2023-08-12T11:37:38.906Z,1.00
2023-08-12T11:40:09.885Z,1.00
2023-08-12T11:42:38.222Z,1.00
2023-08-12T11:45:06.868Z,1.00
2023-08-12T11:47:34.822Z,1.00
2023-08-12T11:50:04.816Z,1.00
2023-08-12T11:52:32.933Z,1.00
2023-08-12T11:55:02.410Z,1.00
2023-08-12T11:57:30.364Z,1.00
2023-08-12T12:00:00.631Z,1.00
2023-08-12T12:02:28.624Z,1.00
2023-08-12T12:04:56.664Z,1.00
2023-08-12T12:07:25.793Z,1.00
2023-08-12T12:09:55.457Z,1.00
2023-08-12T12:12:27.855Z,1.00
2023-08-12T12:14:55.996Z,1.00
2023-08-12T12:17:24.294Z,1.00
2023-08-12T12:19:54.970Z,1.00
2023-08-12T12:22:28.340Z,1.00
2023-08-12T12:24:56.514Z,1.00
2023-08-12T12:27:24.439Z,1.00
2023-08-12T12:29:53.778Z,1.00
2023-08-12T12:32:22.308Z,1.00
2023-08-12T12:34:50.672Z,1.00
2023-08-12T12:37:18.614Z,1.00
2023-08-12T12:39:46.751Z,1.00
2023-08-12T12:42:15.120Z,1.00
2023-08-12T12:44:43.386Z,1.00
2023-08-12T12:47:13.513Z,1.00
2023-08-12T12:49:42.553Z,1.00
2023-08-12T12:52:10.674Z,1.00
2023-08-12T12:54:38.889Z,1.00
2023-08-12T12:57:07.439Z,1.00
2023-08-12T12:59:35.357Z,1.00
2023-08-12T13:02:03.270Z,1.00
2023-08-12T13:04:32.613Z,1.00
2023-08-12T13:07:00.565Z,1.00
2023-08-12T13:09:28.473Z,1.00
2023-08-12T13:11:58.134Z,1.00
2023-08-12T13:14:26.297Z,1.00
2023-08-12T13:16:54.244Z,1.00
2023-08-12T13:19:22.289Z,1.00
2023-08-12T13:21:51.668Z,1.00
2023-08-12T13:24:19.614Z,1.00
2023-08-12T13:26:47.604Z,1.00
2023-08-12T13:29:15.531Z,1.00
2023-08-12T13:31:43.622Z,1.00
2023-08-12T13:34:11.631Z,1.00
2023-08-12T13:36:39.552Z,1.00
2023-08-12T13:39:08.963Z,1.00
2023-08-12T13:41:36.970Z,1.00
2023-08-12T13:44:05.631Z,1.00
2023-08-12T13:46:33.613Z,1.00
2023-08-12T13:49:01.606Z,1.00
2023-08-12T13:51:29.962Z,1.00
2023-08-12T13:53:57.821Z,1.00
2023-08-12T13:56:27.147Z,1.00
2023-08-12T13:58:55.225Z,1.00
2023-08-12T14:01:23.563Z,1.00
2023-08-12T14:03:51.570Z,1.00
2023-08-12T14:06:19.611Z,1.00
2023-08-12T14:08:47.506Z,1.00
2023-08-12T14:11:15.519Z,1.00
2023-08-12T14:13:44.919Z,1.00
2023-08-12T14:16:13.102Z,1.00
2023-08-12T14:18:41.079Z,1.00
2023-08-12T14:21:09.074Z,1.00
2023-08-12T14:23:37.064Z,1.00
2023-08-12T14:26:04.956Z,1.00
2023-08-12T14:28:32.943Z,1.00
2023-08-12T14:31:02.444Z,1.00
2023-08-12T14:33:30.860Z,1.00
2023-08-12T14:35:59.639Z,1.00
2023-08-12T14:38:27.544Z,1.00
2023-08-12T14:40:55.468Z,1.00
2023-08-12T14:43:23.397Z,1.00
2023-08-12T14:45:51.339Z,1.00
2023-08-12T14:48:20.713Z,1.00
2023-08-12T14:50:48.728Z,1.00
2023-08-12T14:53:16.718Z,1.00
2023-08-12T14:55:46.064Z,1.00
2023-08-12T14:58:15.620Z,1.00
2023-08-12T15:00:43.608Z,1.00
2023-08-12T15:03:12.808Z,1.00
2023-08-12T15:05:42.355Z,1.00
2023-08-12T15:08:10.314Z,1.00
2023-08-12T15:10:38.372Z,1.00
2023-08-12T15:13:06.341Z,1.00
2023-08-12T15:15:34.306Z,1.00
2023-08-12T15:18:02.323Z,1.00
2023-08-12T15:20:32.233Z,1.00
2023-08-12T15:23:01.727Z,1.00
2023-08-12T15:25:29.783Z,1.00
2023-08-12T15:27:57.808Z,1.00
2023-08-12T15:30:25.903Z,1.00
2023-08-12T15:32:53.853Z,1.00
2023-08-12T15:35:22.863Z,1.00
2023-08-12T15:37:50.883Z,1.00
2023-08-12T15:40:21.150Z,1.00
2023-08-12T15:42:50.916Z,1.00
2023-08-12T15:45:19.032Z,1.00
2023-08-12T15:47:46.996Z,1.00
2023-08-12T15:50:14.942Z,1.00
2023-08-12T15:52:43.251Z,1.00
2023-08-12T15:55:11.268Z,1.00
2023-08-12T15:57:40.608Z,1.00
2023-08-12T16:00:11.641Z,1.00
2023-08-12T16:02:39.719Z,1.00
2023-08-12T16:05:08.208Z,1.00
2023-08-12T16:07:36.201Z,1.00
2023-08-12T16:10:04.422Z,1.00
2023-08-12T16:12:32.382Z,1.00
2023-08-12T16:15:01.798Z,1.00
2023-08-12T16:17:29.776Z,1.00
2023-08-12T16:19:57.893Z,1.00
2023-08-12T16:22:25.862Z,1.00
2023-08-12T16:24:53.906Z,1.00
2023-08-12T16:27:21.924Z,1.00
2023-08-12T16:29:50.006Z,1.00
2023-08-12T16:32:19.388Z,1.00
2023-08-12T16:34:47.353Z,1.00
2023-08-12T16:37:21.542Z,1.00
2023-08-12T16:39:49.821Z,1.00
2023-08-12T16:42:19.173Z,1.00
2023-08-12T16:44:49.011Z,1.00
2023-08-12T16:47:17.073Z,1.00
2023-08-12T16:49:46.379Z,1.00
2023-08-12T16:52:14.689Z,1.00
2023-08-12T16:54:43.052Z,1.00
2023-08-12T16:57:11.042Z,1.00
2023-08-12T16:59:38.963Z,1.00
2023-08-12T17:02:07.093Z,1.00
2023-08-12T17:04:34.975Z,1.00
2023-08-12T17:07:04.305Z,1.00
2023-08-12T17:09:34.479Z,1.00
2023-08-12T17:12:02.642Z,1.00
2023-08-12T17:14:30.623Z,1.00
2023-08-12T17:16:58.919Z,1.00
2023-08-12T17:19:26.969Z,1.00
2023-08-12T17:21:55.008Z,1.00
2023-08-12T17:24:24.299Z,1.00
2023-08-12T17:26:52.510Z,1.00
2023-08-12T17:29:20.475Z,1.00
2023-08-12T17:31:48.386Z,1.00
2023-08-12T17:34:16.315Z,1.00
2023-08-12T17:36:44.367Z,1.00
2023-08-12T17:39:12.337Z,1.00
2023-08-12T17:41:41.629Z,1.00
2023-08-12T17:44:09.611Z,1.00
2023-08-12T17:46:37.588Z,1.00
2023-08-12T17:49:05.666Z,1.00
2023-08-12T17:51:33.618Z,1.00
2023-08-12T17:54:01.612Z,1.00
2023-08-12T17:56:29.618Z,1.00
2023-08-12T17:59:00.204Z,1.00
2023-08-12T18:01:28.205Z,1.00
2023-08-12T18:03:57.642Z,1.00
2023-08-12T18:06:25.752Z,1.00
2023-08-12T18:08:54.374Z,1.00
2023-08-12T18:11:22.594Z,1.00
2023-08-12T18:13:50.540Z,1.00
2023-08-12T18:16:19.910Z,1.00
2023-08-12T18:18:47.976Z,1.00
2023-08-12T18:21:15.920Z,1.00
2023-08-12T18:23:43.912Z,1.00
2023-08-12T18:26:11.960Z,1.00
2023-08-12T18:28:39.967Z,1.00
2023-08-12T18:31:07.958Z,1.00
2023-08-12T18:33:37.371Z,1.00
2023-08-12T18:36:06.146Z,1.00
2023-08-12T18:38:34.083Z,1.00
2023-08-12T18:41:02.080Z,1.00
2023-08-12T18:43:29.987Z,1.00
2023-08-12T18:45:57.900Z,1.00
2023-08-12T18:48:25.984Z,1.00
2023-08-12T18:50:55.200Z,1.00
2023-08-12T18:53:23.320Z,1.00
2023-08-12T18:55:51.441Z,1.00
2023-08-12T18:58:19.405Z,1.00
2023-08-12T19:00:47.324Z,1.00
2023-08-12T19:03:15.458Z,1.00
2023-08-12T19:05:44.075Z,1.00
2023-08-12T19:08:16.169Z,1.00
2023-08-12T19:10:45.315Z,1.00
2023-08-12T19:13:13.310Z,1.00
2023-08-12T19:15:43.696Z,1.00
2023-08-12T19:18:11.677Z,1.00
2023-08-12T19:20:39.695Z,1.00
2023-08-12T19:23:07.747Z,1.00
2023-08-12T19:25:37.364Z,1.00
2023-08-12T19:28:05.540Z,1.00
2023-08-12T19:30:33.770Z,1.00
2023-08-12T19:33:01.915Z,1.00
2023-08-12T19:35:30.208Z,1.00
2023-08-12T19:37:59.998Z,1.00
2023-08-12T19:40:28.420Z,1.00
2023-08-12T19:42:57.813Z,1.00
2023-08-12T19:45:25.765Z,1.00
2023-08-12T19:47:53.754Z,1.00
2023-08-12T19:50:22.395Z,1.00
2023-08-12T19:52:50.580Z,1.00
2023-08-12T19:55:19.282Z,1.00
2023-08-12T19:57:47.704Z,1.00
2023-08-12T20:00:17.180Z,1.00
2023-08-12T20:02:45.383Z,1.00
2023-08-12T20:05:15.216Z,1.00
2023-08-12T20:07:43.583Z,1.00
2023-08-12T20:10:12.252Z,1.00
2023-08-12T20:12:40.209Z,1.00
2023-08-12T20:15:08.722Z,1.00
2023-08-12T20:17:38.141Z,1.00
2023-08-12T20:20:10.614Z,1.00
2023-08-12T20:22:44.431Z,1.00
2023-08-12T20:25:19.089Z,1.00
2023-08-12T20:27:46.982Z,1.00
2023-08-12T20:30:14.906Z,1.00
2023-08-12T20:32:44.794Z,1.00
2023-08-12T20:35:12.843Z,1.00
2023-08-12T20:37:40.773Z,1.00
2023-08-12T20:40:09.375Z,1.00
2023-08-12T20:42:37.240Z,1.00
2023-08-12T20:45:05.722Z,1.00
2023-08-12T20:47:33.729Z,1.00
2023-08-12T20:50:03.427Z,1.00
2023-08-12T20:52:31.855Z,1.00
2023-08-12T20:54:59.812Z,1.00
2023-08-12T20:57:27.863Z,1.00
2023-08-12T20:59:57.407Z,1.00
2023-08-12T21:02:26.465Z,1.00
2023-08-12T21:04:54.601Z,1.00
2023-08-12T21:07:23.893Z,1.00
2023-08-12T21:09:51.790Z,1.00
2023-08-12T21:12:19.703Z,1.00
2023-08-12T21:14:47.617Z,1.00
2023-08-12T21:17:15.567Z,1.00
2023-08-12T21:19:43.493Z,1.00
2023-08-12T21:22:11.714Z,1.00
2023-08-12T21:24:41.331Z,1.00
2023-08-12T21:27:09.280Z,1.00
2023-08-12T21:29:37.338Z,1.00
2023-08-12T21:32:05.534Z,1.00
2023-08-12T21:34:33.501Z,1.00
2023-08-12T21:37:01.366Z,1.00
2023-08-12T21:39:29.262Z,1.00
2023-08-12T21:41:58.537Z,1.00
2023-08-12T21:44:26.443Z,1.00
2023-08-12T21:46:54.355Z,1.00
2023-08-12T21:49:22.329Z,1.00
2023-08-12T21:51:50.309Z,1.00
2023-08-12T21:54:18.979Z,1.00
2023-08-12T21:56:46.945Z,1.00
2023-08-12T21:59:16.324Z,1.00
2023-08-12T22:01:44.792Z,1.00
2023-08-12T22:04:12.849Z,1.00
2023-08-12T22:06:40.856Z,1.00
2023-08-12T22:09:09.539Z,1.00
2023-08-12T22:11:37.506Z,1.00
2023-08-12T22:14:05.575Z,1.00
2023-08-12T22:16:34.870Z,1.00
2023-08-12T22:19:02.785Z,1.00
2023-08-12T22:21:30.755Z,1.00
2023-08-12T22:23:58.632Z,1.00
2023-08-12T22:26:26.620Z,1.00
2023-08-12T22:28:54.528Z,1.00
2023-08-12T22:31:22.559Z,1.00
2023-08-12T22:33:51.958Z,1.00
2023-08-12T22:36:19.864Z,1.00
2023-08-12T22:38:47.964Z,1.00
2023-08-12T22:41:15.966Z,1.00
2023-08-12T22:43:43.867Z,1.00
2023-08-12T22:46:11.763Z,1.00
2023-08-12T22:48:40.439Z,1.00
2023-08-12T22:51:09.749Z,1.00
2023-08-12T22:53:37.763Z,1.00
2023-08-12T22:56:05.892Z,1.00
2023-08-12T22:58:33.777Z,1.00
2023-08-12T23:01:01.750Z,1.00
2023-08-12T23:03:29.819Z,2.70
2023-08-12T23:05:57.790Z,5.80
2023-08-12T23:08:27.039Z,1.90
2023-08-12T23:10:54.954Z,7.80
2023-08-12T23:13:23.619Z,6.60
2023-08-12T23:15:51.556Z,4.00
2023-08-12T23:18:19.894Z,11.30
2023-08-12T23:20:47.784Z,15.60
2023-08-12T23:23:15.760Z,13.20
2023-08-12T23:25:45.081Z,17.20
2023-08-12T23:28:13.044Z,17.90
2023-08-12T23:30:41.415Z,18.50
2023-08-12T23:33:09.407Z,22.50
2023-08-12T23:35:37.320Z,23.80
2023-08-12T23:38:05.408Z,26.30
2023-08-12T23:40:33.305Z,25.50
2023-08-12T23:43:02.724Z,21.00
2023-08-12T23:45:30.689Z,21.70
2023-08-12T23:47:58.699Z,22.00
2023-08-12T23:50:26.617Z,26.70
2023-08-12T23:52:54.560Z,27.40
2023-08-12T23:55:22.678Z,27.30
2023-08-12T23:57:50.639Z,30.80
